Time;durP1;ratioP1;P1;durP2;ratioP2;P2;SDS_P1;SDS_P2;PMS_P1;PMS_P2;Temp;Humidity;BMP_temperature;BMP_pressure;BME280_temperature;BME280_humidity;BME280_pressure;Samples;Min_cycle;Max_cycle;Signal;HPM_P1;HPM_P2
2021/12/31 00:01:37;;;;;;;9.48;2.03;;;13.30;86.40;;;;;;5088839;28;20047;-71
2021/12/31 00:04:05;;;;;;;6.47;1.55;;;13.40;86.50;;;;;;5094673;28;20040;-71
2021/12/31 00:06:34;;;;;;;8.45;2.00;;;13.40;86.40;;;;;;5069013;28;20398;-71
2021/12/31 00:09:02;;;;;;;10.95;1.77;;;13.40;86.40;;;;;;5071721;28;20048;-71
2021/12/31 00:11:30;;;;;;;7.25;1.55;;;13.40;86.10;;;;;;5089205;28;20044;-70
2021/12/31 00:13:58;;;;;;;6.15;1.70;;;13.40;86.00;;;;;;5063570;28;20048;-71
2021/12/31 00:16:26;;;;;;;7.82;1.80;;;13.40;86.10;;;;;;5070542;28;20044;-71
2021/12/31 00:18:54;;;;;;;14.80;2.22;;;13.40;85.90;;;;;;5086688;28;20506;-70
2021/12/31 00:21:22;;;;;;;12.95;2.40;;;13.50;85.60;;;;;;5076484;28;20483;-71
2021/12/31 00:23:50;;;;;;;11.07;2.60;;;13.50;85.60;;;;;;5093619;28;20633;-70
2021/12/31 00:26:18;;;;;;;10.18;1.55;;;13.50;85.40;;;;;;5081280;28;20044;-70
2021/12/31 00:28:45;;;;;;;11.55;1.73;;;13.50;85.20;;;;;;5080210;28;20047;-70
2021/12/31 00:31:13;;;;;;;9.52;2.08;;;13.50;85.30;;;;;;5089099;28;20063;-70
2021/12/31 00:33:41;;;;;;;9.02;1.63;;;13.60;85.10;;;;;;5072830;28;20233;-71
2021/12/31 00:36:09;;;;;;;8.07;1.40;;;13.60;85.10;;;;;;5090026;28;20063;-71
2021/12/31 00:38:36;;;;;;;11.15;2.17;;;13.60;85.10;;;;;;5091490;28;20040;-71
2021/12/31 00:41:04;;;;;;;15.75;2.10;;;13.60;85.00;;;;;;5093547;28;20048;-70
2021/12/31 00:43:32;;;;;;;5.20;1.40;;;13.60;85.20;;;;;;5094664;28;20062;-69
2021/12/31 00:46:02;;;;;;;11.43;1.90;;;13.50;85.20;;;;;;5095405;28;20075;-69
2021/12/31 00:48:30;;;;;;;11.65;2.22;;;13.60;85.30;;;;;;5095240;28;20122;-70
2021/12/31 00:50:58;;;;;;;10.43;2.55;;;13.60;85.20;;;;;;5076557;28;20051;-70
2021/12/31 00:53:26;;;;;;;17.30;2.50;;;13.60;85.00;;;;;;5095314;28;20376;-71
2021/12/31 00:55:54;;;;;;;8.68;2.22;;;13.60;85.10;;;;;;5094238;28;20039;-70
2021/12/31 00:58:21;;;;;;;7.35;1.67;;;13.70;85.00;;;;;;5076702;28;20072;-71
2021/12/31 01:00:50;;;;;;;10.48;2.17;;;13.70;85.00;;;;;;5076417;28;20044;-71
2021/12/31 01:03:18;;;;;;;11.38;2.05;;;13.80;84.90;;;;;;5094926;28;20411;-70
2021/12/31 01:05:46;;;;;;;8.48;1.80;;;13.80;84.90;;;;;;5095057;28;20051;-70
2021/12/31 01:08:13;;;;;;;10.10;2.05;;;13.80;84.90;;;;;;5076578;28;20044;-70
2021/12/31 01:10:41;;;;;;;12.55;1.90;;;13.80;85.00;;;;;;5087339;28;20047;-70
2021/12/31 01:13:14;;;;;;;8.38;2.08;;;13.80;85.00;;;;;;5074718;28;20045;-70
2021/12/31 01:15:46;;;;;;;11.30;2.08;;;13.80;85.00;;;;;;5056761;28;20053;-70
2021/12/31 01:18:19;;;;;;;12.52;2.33;;;13.80;84.90;;;;;;5074598;28;20044;-71
2021/12/31 01:20:47;;;;;;;8.50;1.98;;;13.80;85.00;;;;;;5088669;28;20407;-70
2021/12/31 01:23:16;;;;;;;15.35;2.33;;;13.80;85.20;;;;;;5094357;28;20048;-70
2021/12/31 01:25:45;;;;;;;12.20;2.55;;;13.80;85.40;;;;;;5076079;28;20043;-71
2021/12/31 01:28:13;;;;;;;10.73;2.28;;;13.70;85.50;;;;;;5076161;28;20051;-70
2021/12/31 01:30:41;;;;;;;14.00;2.80;;;13.80;85.60;;;;;;5093582;28;20471;-70
2021/12/31 01:33:09;;;;;;;12.88;2.20;;;13.70;85.70;;;;;;5094412;28;20036;-70
2021/12/31 01:35:37;;;;;;;8.02;2.03;;;13.70;85.90;;;;;;5094179;28;20055;-71
2021/12/31 01:38:05;;;;;;;13.57;2.33;;;13.70;85.90;;;;;;5063365;28;20048;-70
2021/12/31 01:40:33;;;;;;;13.63;2.70;;;13.80;85.90;;;;;;5058858;28;20071;-71
2021/12/31 01:43:00;;;;;;;9.23;2.00;;;13.80;85.80;;;;;;5076184;28;20040;-70
2021/12/31 01:45:32;;;;;;;8.48;2.10;;;13.70;86.00;;;;;;5094475;28;20048;-70
2021/12/31 01:48:09;;;;;;;11.50;2.78;;;13.70;86.00;;;;;;5094200;28;20044;-70
2021/12/31 01:50:37;;;;;;;11.02;2.53;;;13.70;86.00;;;;;;5093925;28;20043;-70
2021/12/31 01:53:05;;;;;;;8.73;2.33;;;13.70;86.10;;;;;;5093920;28;20059;-70
2021/12/31 01:55:33;;;;;;;11.50;2.53;;;13.70;86.10;;;;;;5075911;28;20491;-70
2021/12/31 01:58:02;;;;;;;16.77;2.90;;;13.70;86.20;;;;;;5055132;28;20056;-71
2021/12/31 02:00:30;;;;;;;12.38;3.00;;;13.70;86.10;;;;;;5039505;28;20055;-69
2021/12/31 02:03:00;;;;;;;14.32;2.53;;;13.70;86.10;;;;;;5055876;28;20044;-70
2021/12/31 02:05:28;;;;;;;11.88;2.13;;;13.70;86.20;;;;;;5072597;28;20507;-69
2021/12/31 02:07:57;;;;;;;9.88;2.15;;;13.80;86.10;;;;;;5085513;28;20055;-69
2021/12/31 02:10:25;;;;;;;9.35;2.75;;;13.80;86.00;;;;;;5089354;28;20051;-70
2021/12/31 02:12:54;;;;;;;5.18;1.40;;;13.80;85.90;;;;;;5061042;28;20059;-70
2021/12/31 02:15:22;;;;;;;15.60;2.67;;;13.80;85.70;;;;;;5092626;28;20040;-70
2021/12/31 02:17:50;;;;;;;12.35;2.47;;;13.90;85.50;;;;;;5070396;28;20491;-70
2021/12/31 02:20:19;;;;;;;8.10;1.77;;;13.90;85.60;;;;;;5091528;28;20040;-70
2021/12/31 02:23:05;;;;;;;14.43;2.55;;;13.90;85.30;;;;;;5085453;28;20044;-71
2021/12/31 02:25:36;;;;;;;8.75;1.60;;;13.90;85.40;;;;;;5074329;28;20044;-71
2021/12/31 02:28:03;;;;;;;8.80;1.98;;;14.00;85.20;;;;;;5087236;28;20048;-71
2021/12/31 02:30:31;;;;;;;9.35;1.88;;;13.90;85.40;;;;;;5090128;28;20048;-70
2021/12/31 02:32:59;;;;;;;15.77;2.60;;;13.80;85.60;;;;;;5081583;28;20059;-70
2021/12/31 02:35:27;;;;;;;9.45;1.90;;;13.90;85.80;;;;;;5093244;28;20498;-71
2021/12/31 02:37:54;;;;;;;9.25;2.15;;;13.90;85.80;;;;;;5091998;28;20055;-71
2021/12/31 02:40:24;;;;;;;6.97;1.50;;;13.80;85.90;;;;;;5083635;28;20480;-70
2021/12/31 02:42:51;;;;;;;14.23;1.65;;;13.80;85.90;;;;;;5067589;28;20039;-71
2021/12/31 02:45:21;;;;;;;8.93;2.08;;;13.90;85.90;;;;;;5085411;28;20408;-71
2021/12/31 02:47:49;;;;;;;8.02;1.67;;;13.80;86.00;;;;;;5075791;28;20052;-71
2021/12/31 02:50:18;;;;;;;7.03;1.55;;;13.90;86.00;;;;;;5054735;28;20491;-71
2021/12/31 02:52:46;;;;;;;12.02;2.00;;;13.90;86.10;;;;;;5085583;28;20058;-71
2021/12/31 02:55:16;;;;;;;11.07;1.88;;;13.90;86.10;;;;;;5091546;28;20044;-70
2021/12/31 02:57:44;;;;;;;6.80;1.67;;;13.90;86.30;;;;;;5073780;28;20044;-69
2021/12/31 03:00:12;;;;;;;10.45;1.55;;;13.80;86.40;;;;;;5072398;28;20037;-69
2021/12/31 03:02:41;;;;;;;4.45;1.60;;;13.80;86.50;;;;;;5066892;28;20051;-69
2021/12/31 03:05:10;;;;;;;4.72;1.50;;;13.80;86.60;;;;;;5083801;28;20471;-70
2021/12/31 03:07:39;;;;;;;7.13;1.40;;;13.80;86.70;;;;;;5078091;28;20048;-70
2021/12/31 03:10:09;;;;;;;4.07;1.00;;;13.80;86.70;;;;;;5087739;28;20055;-70
2021/12/31 03:12:39;;;;;;;4.32;1.10;;;13.80;87.10;;;;;;5089210;28;20495;-70
2021/12/31 03:15:11;;;;;;;4.43;0.98;;;13.70;87.40;;;;;;5072450;28;20518;-70
2021/12/31 03:17:40;;;;;;;5.28;1.25;;;13.60;87.50;;;;;;5083357;28;20395;-71
2021/12/31 03:20:11;;;;;;;2.70;0.80;;;13.70;87.50;;;;;;5092053;28;20071;-70
2021/12/31 03:22:40;;;;;;;7.18;1.15;;;13.70;87.50;;;;;;5081862;28;20040;-69
2021/12/31 03:25:10;;;;;;;4.93;1.05;;;13.70;87.60;;;;;;5079090;28;20040;-69
2021/12/31 03:27:37;;;;;;;3.80;0.90;;;13.60;87.60;;;;;;5075542;28;20048;-70
2021/12/31 03:30:06;;;;;;;3.95;0.90;;;13.70;87.50;;;;;;5072214;28;20048;-69
2021/12/31 03:32:33;;;;;;;6.20;0.80;;;13.70;87.40;;;;;;5083636;28;20581;-69
2021/12/31 03:35:01;;;;;;;7.20;1.50;;;13.70;87.40;;;;;;5063855;28;20056;-70
2021/12/31 03:37:29;;;;;;;5.45;0.80;;;13.70;87.50;;;;;;5088651;28;20056;-70
2021/12/31 03:39:56;;;;;;;5.57;0.90;;;13.70;87.70;;;;;;5092017;28;20502;-70
2021/12/31 03:42:24;;;;;;;3.28;1.08;;;13.60;87.80;;;;;;5081535;28;20040;-70
2021/12/31 03:44:51;;;;;;;5.47;1.08;;;13.60;88.00;;;;;;5071851;28;20060;-70
2021/12/31 03:47:20;;;;;;;5.50;1.40;;;13.60;88.00;;;;;;5060415;28;20414;-70
2021/12/31 03:49:48;;;;;;;2.78;0.85;;;13.60;88.30;;;;;;5089724;28;20048;-70
2021/12/31 03:52:16;;;;;;;5.50;1.20;;;13.50;88.60;;;;;;5080872;28;20072;-69
2021/12/31 03:54:43;;;;;;;5.20;1.38;;;13.40;89.00;;;;;;5091721;28;20536;-70
2021/12/31 03:57:11;;;;;;;3.92;1.20;;;13.30;89.30;;;;;;5090822;28;20044;-70
2021/12/31 03:59:38;;;;;;;5.38;1.45;;;13.30;89.50;;;;;;5089921;28;20055;-70
2021/12/31 04:02:06;;;;;;;6.53;1.42;;;13.30;89.70;;;;;;5078089;28;20056;-70
2021/12/31 04:04:34;;;;;;;7.63;1.52;;;13.30;89.90;;;;;;5091258;28;20134;-70
2021/12/31 04:07:01;;;;;;;4.82;1.40;;;13.30;89.90;;;;;;5091128;28;20067;-71
2021/12/31 04:09:29;;;;;;;6.20;1.40;;;13.30;90.00;;;;;;5062544;28;20403;-70
2021/12/31 04:11:56;;;;;;;4.78;1.40;;;13.30;89.90;;;;;;5072543;28;20044;-70
2021/12/31 04:14:24;;;;;;;5.03;1.20;;;13.30;89.80;;;;;;5080031;28;20040;-69
2021/12/31 04:16:52;;;;;;;5.68;1.30;;;13.30;89.60;;;;;;5095408;28;20040;-70
2021/12/31 04:19:20;;;;;;;5.25;1.13;;;13.40;89.50;;;;;;5085887;28;20044;-69
2021/12/31 04:21:49;;;;;;;5.07;1.27;;;13.40;89.30;;;;;;5075544;28;20040;-71
2021/12/31 04:24:50;;;;;;;4.22;1.23;;;13.40;89.30;;;;;;5075559;28;20395;-70
2021/12/31 04:27:14;;;;;;;3.42;1.15;;;13.50;89.10;;;;;;5075238;28;20053;-71
2021/12/31 04:29:49;;;;;;;6.68;1.58;;;13.40;89.00;;;;;;5087471;28;20044;-71
2021/12/31 04:32:21;;;;;;;4.05;1.10;;;13.50;88.90;;;;;;5069484;28;20049;-71
2021/12/31 04:34:49;;;;;;;4.28;1.00;;;13.50;88.70;;;;;;5057583;28;20044;-70
2021/12/31 04:37:16;;;;;;;4.25;0.80;;;13.60;88.70;;;;;;5087439;28;20728;-71
2021/12/31 04:39:44;;;;;;;2.28;0.68;;;13.60;88.50;;;;;;5081454;28;20040;-71
2021/12/31 04:42:12;;;;;;;5.80;1.00;;;13.60;88.30;;;;;;5076770;28;20044;-71
2021/12/31 04:44:39;;;;;;;4.55;0.90;;;13.60;88.20;;;;;;5089622;28;20056;-70
2021/12/31 04:47:07;;;;;;;4.65;1.02;;;13.70;88.10;;;;;;5057100;28;20415;-71
2021/12/31 04:49:35;;;;;;;4.72;0.98;;;13.70;88.00;;;;;;5074601;28;20052;-71
2021/12/31 04:52:03;;;;;;;3.10;0.82;;;13.70;87.80;;;;;;5084604;28;20040;-70
2021/12/31 04:54:31;;;;;;;3.40;0.70;;;13.70;87.90;;;;;;5089471;28;20044;-70
2021/12/31 04:56:59;;;;;;;1.67;0.60;;;13.80;87.80;;;;;;5074798;28;20055;-70
2021/12/31 04:59:27;;;;;;;1.58;0.43;;;13.80;87.80;;;;;;5075021;28;20044;-70
2021/12/31 05:01:55;;;;;;;1.88;0.50;;;13.70;87.60;;;;;;5083374;28;20044;-70
2021/12/31 05:04:22;;;;;;;1.67;0.63;;;13.70;87.50;;;;;;5078252;28;20044;-70
2021/12/31 05:06:51;;;;;;;2.65;0.50;;;13.60;87.60;;;;;;5076200;28;20052;-70
2021/12/31 05:09:18;;;;;;;2.33;0.50;;;13.60;87.70;;;;;;5079062;28;20040;-70
2021/12/31 05:11:46;;;;;;;2.67;0.68;;;13.50;87.70;;;;;;5077832;28;20043;-70
2021/12/31 05:14:14;;;;;;;2.22;0.60;;;13.60;87.70;;;;;;5082873;28;20040;-70
2021/12/31 05:16:42;;;;;;;3.08;0.82;;;13.50;87.80;;;;;;5074968;28;20040;-70
2021/12/31 05:19:09;;;;;;;1.40;0.45;;;13.50;87.80;;;;;;5092922;28;20044;-70
2021/12/31 05:21:37;;;;;;;1.80;0.40;;;13.60;87.80;;;;;;5090693;28;20056;-70
2021/12/31 05:24:05;;;;;;;1.65;0.63;;;13.50;87.90;;;;;;5091638;28;20514;-70
2021/12/31 05:26:33;;;;;;;1.75;0.60;;;13.50;88.00;;;;;;5093762;28;20405;-70
2021/12/31 05:29:02;;;;;;;3.83;0.70;;;13.50;88.00;;;;;;5059223;28;20399;-70
2021/12/31 05:31:29;;;;;;;2.35;0.60;;;13.50;88.10;;;;;;5089289;28;20036;-70
2021/12/31 05:33:57;;;;;;;3.35;0.70;;;13.40;88.20;;;;;;5070037;28;20171;-70
2021/12/31 05:36:25;;;;;;;4.55;0.80;;;13.40;88.10;;;;;;5088247;28;20051;-70
2021/12/31 05:38:52;;;;;;;3.35;0.65;;;13.50;87.80;;;;;;5059948;28;20044;-70
2021/12/31 05:41:20;;;;;;;5.90;0.77;;;13.50;87.70;;;;;;5093044;28;20067;-70
2021/12/31 05:43:47;;;;;;;4.63;1.10;;;13.50;87.80;;;;;;5076517;28;20395;-70
2021/12/31 05:46:16;;;;;;;5.53;0.88;;;13.50;87.90;;;;;;5089342;28;20487;-70
2021/12/31 05:48:44;;;;;;;7.38;1.25;;;13.50;88.00;;;;;;5079225;28;20395;-70
2021/12/31 05:51:12;;;;;;;4.15;1.10;;;13.50;88.10;;;;;;5091744;28;20068;-69
2021/12/31 05:53:40;;;;;;;5.47;1.17;;;13.50;88.20;;;;;;5074411;28;20048;-70
2021/12/31 05:56:08;;;;;;;6.38;1.20;;;13.50;88.30;;;;;;5090269;28;20051;-70
2021/12/31 05:58:35;;;;;;;8.93;1.33;;;13.50;88.40;;;;;;5076972;28;20407;-70
2021/12/31 06:01:03;;;;;;;6.70;1.77;;;13.50;88.20;;;;;;5074678;28;20040;-70
2021/12/31 06:03:31;;;;;;;9.07;1.48;;;13.50;88.10;;;;;;5089348;28;20371;-70
2021/12/31 06:05:58;;;;;;;8.38;1.60;;;13.50;88.00;;;;;;5076471;28;20522;-70
2021/12/31 06:08:26;;;;;;;5.43;1.20;;;13.50;88.00;;;;;;5078844;28;20063;-70
2021/12/31 06:10:54;;;;;;;8.00;1.52;;;13.50;87.80;;;;;;5088949;28;20123;-70
2021/12/31 06:13:22;;;;;;;7.45;1.60;;;13.50;87.80;;;;;;5092728;28;20399;-70
2021/12/31 06:15:57;;;;;;;7.50;1.90;;;13.50;87.80;;;;;;5093328;28;20051;-71
2021/12/31 06:18:28;;;;;;;10.05;1.88;;;13.50;87.90;;;;;;5093002;28;20040;-70
2021/12/31 06:20:55;;;;;;;7.80;1.30;;;13.50;87.90;;;;;;5089144;28;20522;-70
2021/12/31 06:23:23;;;;;;;5.00;1.08;;;13.50;87.90;;;;;;5073237;28;20049;-70
2021/12/31 06:25:51;;;;;;;7.22;1.27;;;13.40;87.90;;;;;;5091546;28;20048;-70
2021/12/31 06:28:18;;;;;;;5.78;1.40;;;13.50;88.00;;;;;;5049518;28;20074;-70
2021/12/31 06:30:46;;;;;;;5.38;1.35;;;13.40;88.10;;;;;;5058882;28;20428;-70
2021/12/31 06:33:13;;;;;;;7.63;1.33;;;13.40;88.30;;;;;;5089024;28;20043;-69
2021/12/31 06:35:41;;;;;;;6.13;1.20;;;13.30;88.40;;;;;;5069227;28;20055;-69
2021/12/31 06:38:09;;;;;;;8.73;1.70;;;13.30;88.50;;;;;;5074796;28;20036;-70
2021/12/31 06:40:37;;;;;;;5.95;2.03;;;13.30;88.60;;;;;;5060740;28;20492;-70
2021/12/31 06:43:05;;;;;;;7.38;1.63;;;13.30;88.80;;;;;;5072823;28;20045;-70
2021/12/31 06:45:32;;;;;;;5.68;1.65;;;13.30;88.90;;;;;;5072636;28;20055;-70
2021/12/31 06:48:00;;;;;;;6.60;1.40;;;13.30;89.00;;;;;;5088706;28;20036;-70
2021/12/31 06:50:29;;;;;;;7.22;1.40;;;13.20;89.10;;;;;;5079028;28;20044;-71
2021/12/31 06:52:57;;;;;;;7.70;1.30;;;13.30;89.10;;;;;;5082611;28;20051;-71
2021/12/31 06:55:25;;;;;;;4.57;1.40;;;13.20;89.10;;;;;;5092540;28;20490;-71
2021/12/31 06:57:52;;;;;;;7.90;1.33;;;13.30;89.10;;;;;;5091843;28;20044;-70
2021/12/31 07:00:20;;;;;;;7.10;1.55;;;13.30;89.10;;;;;;5086226;28;20047;-71
2021/12/31 07:02:48;;;;;;;6.15;1.40;;;13.30;89.10;;;;;;5057780;28;20044;-71
2021/12/31 07:05:16;;;;;;;4.78;1.20;;;13.30;89.00;;;;;;5081393;28;20606;-70
2021/12/31 07:07:44;;;;;;;4.82;1.25;;;13.30;89.00;;;;;;5088257;28;20047;-71
2021/12/31 07:10:13;;;;;;;4.60;1.10;;;13.30;88.90;;;;;;5090971;28;20518;-71
2021/12/31 07:12:41;;;;;;;5.05;1.27;;;13.40;88.80;;;;;;5073780;28;20052;-71
2021/12/31 07:15:09;;;;;;;2.78;1.10;;;13.40;88.90;;;;;;5087337;28;20041;-71
2021/12/31 07:17:36;;;;;;;6.13;1.30;;;13.30;88.90;;;;;;5081274;28;20036;-71
2021/12/31 07:20:05;;;;;;;5.35;1.20;;;13.30;88.90;;;;;;5083923;28;20048;-71
2021/12/31 07:22:35;;;;;;;6.30;1.42;;;13.30;89.00;;;;;;5054223;28;20045;-71
2021/12/31 07:25:03;;;;;;;6.68;1.45;;;13.30;89.00;;;;;;5075555;28;20410;-70
2021/12/31 07:27:32;;;;;;;6.03;1.33;;;13.30;89.00;;;;;;5084993;28;20041;-70
2021/12/31 07:30:00;;;;;;;5.90;1.00;;;13.30;89.10;;;;;;5078324;28;20406;-70
2021/12/31 07:32:28;;;;;;;4.70;1.02;;;13.30;89.10;;;;;;5080759;28;20403;-69
2021/12/31 07:34:55;;;;;;;8.07;1.20;;;13.30;89.20;;;;;;5054025;28;20045;-70
2021/12/31 07:37:23;;;;;;;7.95;1.20;;;13.30;89.20;;;;;;5082269;28;20357;-70
2021/12/31 07:39:58;;;;;;;4.15;1.08;;;13.30;89.30;;;;;;5076447;28;20043;-70
2021/12/31 07:42:26;;;;;;;4.72;1.08;;;13.30;89.40;;;;;;5091436;28;20048;-70
2021/12/31 07:44:53;;;;;;;4.57;1.00;;;13.30;89.50;;;;;;5090951;28;20078;-70
2021/12/31 07:47:21;;;;;;;6.00;1.10;;;13.30;89.50;;;;;;5073495;28;20513;-70
2021/12/31 07:49:48;;;;;;;4.60;1.00;;;13.30;89.60;;;;;;5086262;28;20052;-70
2021/12/31 07:52:16;;;;;;;5.50;1.00;;;13.20;89.70;;;;;;5061894;28;20051;-71
2021/12/31 07:54:44;;;;;;;5.53;1.23;;;13.20;89.80;;;;;;5090212;28;20032;-71
2021/12/31 07:57:12;;;;;;;3.50;1.27;;;13.20;90.00;;;;;;5071222;28;20036;-70
2021/12/31 07:59:39;;;;;;;4.68;1.23;;;13.10;90.10;;;;;;5090761;28;20040;-71
2021/12/31 08:02:07;;;;;;;5.07;1.30;;;13.10;90.20;;;;;;5090025;28;20063;-70
2021/12/31 08:04:35;;;;;;;5.25;1.20;;;13.00;90.30;;;;;;5079193;28;20045;-70
2021/12/31 08:07:03;;;;;;;2.97;0.95;;;13.00;90.50;;;;;;5086282;28;20403;-70
2021/12/31 08:09:31;;;;;;;5.13;1.10;;;13.00;90.60;;;;;;5071440;28;20052;-70
2021/12/31 08:11:58;;;;;;;5.22;1.00;;;13.00;90.70;;;;;;5053749;28;20060;-70
2021/12/31 08:14:26;;;;;;;3.75;1.27;;;13.00;90.80;;;;;;5053889;28;20041;-70
2021/12/31 08:16:55;;;;;;;2.67;0.90;;;13.00;90.80;;;;;;5071518;28;20510;-70
2021/12/31 08:19:23;;;;;;;3.22;0.80;;;12.90;90.90;;;;;;5071498;28;20041;-70
2021/12/31 08:21:50;;;;;;;3.10;1.15;;;12.90;91.10;;;;;;5069684;28;20051;-70
2021/12/31 08:24:18;;;;;;;4.68;0.90;;;12.90;91.20;;;;;;5089080;28;20053;-70
2021/12/31 08:26:45;;;;;;;2.97;0.80;;;12.90;91.30;;;;;;5072050;28;20041;-70
2021/12/31 08:29:15;;;;;;;2.63;0.80;;;12.80;91.50;;;;;;5083263;28;20040;-70
2021/12/31 08:31:43;;;;;;;4.85;0.77;;;12.80;91.80;;;;;;5078347;28;20411;-70
2021/12/31 08:34:11;;;;;;;2.97;0.80;;;12.80;92.00;;;;;;5081136;28;20442;-70
2021/12/31 08:36:39;;;;;;;3.08;0.90;;;12.80;92.10;;;;;;5089303;28;20048;-70
2021/12/31 08:39:08;;;;;;;3.30;0.80;;;12.80;92.30;;;;;;5091077;28;20040;-70
2021/12/31 08:41:39;;;;;;;4.78;0.88;;;12.70;92.30;;;;;;5070943;28;20040;-70
2021/12/31 08:44:16;;;;;;;1.98;0.80;;;12.70;92.30;;;;;;5088830;28;20052;-70
2021/12/31 08:46:45;;;;;;;3.55;1.20;;;12.70;92.30;;;;;;5088329;28;20044;-70
2021/12/31 08:49:14;;;;;;;3.70;1.00;;;12.70;92.50;;;;;;5087026;28;20482;-71
2021/12/31 08:51:41;;;;;;;5.35;0.98;;;12.70;92.50;;;;;;5070917;28;20059;-70
2021/12/31 08:54:09;;;;;;;4.55;0.90;;;12.70;92.50;;;;;;5087982;28;20040;-71
2021/12/31 08:56:37;;;;;;;4.53;0.88;;;12.70;92.50;;;;;;5071459;28;20059;-71
2021/12/31 08:59:05;;;;;;;3.22;0.90;;;12.70;92.50;;;;;;5087496;28;20048;-70
2021/12/31 09:01:32;;;;;;;3.60;0.73;;;12.80;92.50;;;;;;5088734;28;20457;-70
2021/12/31 09:04:00;;;;;;;2.92;0.73;;;12.80;92.40;;;;;;5074314;28;20399;-70
2021/12/31 09:06:28;;;;;;;2.45;0.85;;;12.80;92.40;;;;;;5091858;28;20046;-70
2021/12/31 09:08:56;;;;;;;2.17;0.65;;;12.80;92.40;;;;;;5093353;28;20028;-70
2021/12/31 09:11:23;;;;;;;2.45;0.80;;;12.80;92.40;;;;;;5092867;28;20048;-70
2021/12/31 09:13:54;;;;;;;1.52;0.68;;;12.80;92.40;;;;;;5092439;28;20048;-70
2021/12/31 09:16:22;;;;;;;2.17;0.68;;;12.80;92.40;;;;;;5092296;28;20058;-70
2021/12/31 09:18:49;;;;;;;2.70;0.68;;;12.80;92.30;;;;;;5091658;28;20497;-70
2021/12/31 09:21:17;;;;;;;1.80;0.80;;;12.80;92.30;;;;;;5088339;28;20062;-71
2021/12/31 09:23:46;;;;;;;3.00;0.80;;;12.80;92.30;;;;;;5072619;28;20395;-70
2021/12/31 09:26:15;;;;;;;3.13;0.80;;;12.90;92.20;;;;;;5073210;28;20055;-70
2021/12/31 09:28:43;;;;;;;4.78;0.90;;;13.00;92.10;;;;;;5092862;28;20043;-70
2021/12/31 09:31:12;;;;;;;4.60;0.95;;;13.00;91.80;;;;;;5073727;28;20044;-70
2021/12/31 09:33:40;;;;;;;3.10;1.05;;;13.00;91.60;;;;;;5093957;28;20051;-70
2021/12/31 09:36:08;;;;;;;3.30;0.88;;;13.00;91.30;;;;;;5072072;28;20048;-71
2021/12/31 09:38:35;;;;;;;5.60;1.02;;;13.00;91.10;;;;;;5093531;28;20044;-70
2021/12/31 09:41:03;;;;;;;8.20;1.40;;;13.10;90.70;;;;;;5074720;28;20052;-71
2021/12/31 09:43:31;;;;;;;5.15;0.93;;;13.10;90.50;;;;;;5093417;28;20565;-71
2021/12/31 09:45:59;;;;;;;10.52;1.40;;;13.10;90.40;;;;;;5091481;28;20052;-71
2021/12/31 09:48:26;;;;;;;9.38;1.20;;;13.20;90.00;;;;;;5090572;28;20040;-71
2021/12/31 09:50:56;;;;;;;11.43;1.30;;;13.20;89.90;;;;;;5092876;28;20047;-71
2021/12/31 09:53:26;;;;;;;8.70;1.65;;;13.30;89.50;;;;;;5093039;28;20051;-69
2021/12/31 09:55:55;;;;;;;11.43;1.80;;;13.30;89.20;;;;;;5089892;28;20040;-70
2021/12/31 09:58:26;;;;;;;9.27;1.45;;;13.30;89.40;;;;;;5075609;28;20059;-70
2021/12/31 10:00:57;;;;;;;10.20;1.60;;;13.20;89.30;;;;;;5092211;28;20044;-70
2021/12/31 10:03:33;;;;;;;9.02;1.38;;;13.20;89.30;;;;;;5053971;28;20055;-69
2021/12/31 10:06:12;;;;;;;7.57;1.40;;;13.20;89.30;;;;;;5073583;28;20044;-69
2021/12/31 10:08:47;;;;;;;8.75;1.58;;;13.20;89.20;;;;;;5073557;28;20521;-70
2021/12/31 10:11:17;;;;;;;7.93;1.35;;;13.20;89.30;;;;;;5090530;28;20037;-69
2021/12/31 10:13:58;;;;;;;6.85;1.52;;;13.20;89.00;;;;;;5087206;28;20499;-70
2021/12/31 10:16:25;;;;;;;11.02;1.52;;;13.20;88.60;;;;;;5091643;28;20479;-70
2021/12/31 10:19:10;;;;;;;9.45;1.50;;;13.30;88.30;;;;;;5090485;28;20070;-70
2021/12/31 10:21:50;;;;;;;8.85;1.77;;;13.30;88.00;;;;;;5089750;28;20040;-70
2021/12/31 10:24:36;;;;;;;10.27;1.67;;;13.30;87.90;;;;;;5081177;28;20063;-70
2021/12/31 10:27:11;;;;;;;8.82;1.67;;;13.30;88.00;;;;;;5092910;28;20047;-70
2021/12/31 10:29:57;;;;;;;8.25;1.73;;;13.20;87.80;;;;;;5091613;28;20402;-70
2021/12/31 10:32:28;;;;;;;7.88;1.10;;;13.30;87.70;;;;;;5089964;28;20036;-70
2021/12/31 10:35:09;;;;;;;9.60;1.73;;;13.30;87.50;;;;;;5088219;28;20055;-70
2021/12/31 10:37:47;;;;;;;15.80;1.88;;;13.20;87.50;;;;;;5085591;28;20043;-70
2021/12/31 10:40:39;;;;;;;9.45;1.50;;;13.30;87.30;;;;;;5084475;28;20040;-71
2021/12/31 10:43:16;;;;;;;10.90;1.55;;;13.30;86.70;;;;;;5086713;28;20036;-71
2021/12/31 10:46:16;;;;;;;4.60;1.13;;;13.30;86.80;;;;;;5090701;28;20047;-70
2021/12/31 10:48:50;;;;;;;12.10;1.90;;;13.40;86.00;;;;;;5037121;28;20051;-70
2021/12/31 10:51:34;;;;;;;11.13;1.88;;;13.50;85.60;;;;;;5073452;28;20044;-70
2021/12/31 10:54:30;;;;;;;10.75;1.65;;;13.50;85.40;;;;;;5091977;28;20040;-70
2021/12/31 10:56:59;;;;;;;9.63;1.40;;;13.50;85.10;;;;;;5087006;28;20041;-70
2021/12/31 10:59:33;;;;;;;10.75;1.50;;;13.60;84.70;;;;;;5091264;28;20397;-70
2021/12/31 11:02:01;;;;;;;9.02;1.75;;;13.70;84.00;;;;;;5083190;28;20051;-70
2021/12/31 11:04:34;;;;;;;12.02;1.88;;;13.70;83.60;;;;;;5082368;28;20060;-70
2021/12/31 11:07:03;;;;;;;14.25;2.40;;;13.80;83.20;;;;;;5077968;28;20403;-70
2021/12/31 11:09:32;;;;;;;11.77;2.45;;;13.70;83.70;;;;;;5073504;28;20040;-71
2021/12/31 11:12:00;;;;;;;12.57;1.77;;;13.70;83.60;;;;;;5078769;28;20209;-71
2021/12/31 11:14:28;;;;;;;16.42;2.55;;;13.70;83.50;;;;;;5092160;28;20047;-70
2021/12/31 11:16:58;;;;;;;8.52;1.73;;;13.70;83.60;;;;;;5058884;28;20055;-70
2021/12/31 11:19:25;;;;;;;8.95;1.33;;;13.70;83.80;;;;;;5072190;28;20051;-70
2021/12/31 11:21:53;;;;;;;8.45;1.80;;;13.80;83.90;;;;;;5072400;28;20052;-70
2021/12/31 11:24:34;;;;;;;15.45;2.13;;;13.80;83.20;;;;;;5053702;28;20056;-70
2021/12/31 11:27:35;;;;;;;14.93;1.98;;;13.90;82.90;;;;;;5060659;28;20403;-70
2021/12/31 11:30:04;;;;;;;21.73;2.72;;;13.80;82.60;;;;;;5060198;28;20534;-70
2021/12/31 11:32:59;;;;;;;12.00;2.08;;;13.90;82.60;;;;;;5085659;28;20048;-70
2021/12/31 11:35:30;;;;;;;12.07;2.67;;;13.90;82.00;;;;;;5090353;28;20490;-70
2021/12/31 11:37:58;;;;;;;14.68;3.35;;;13.90;82.30;;;;;;5058923;28;20055;-70
2021/12/31 11:40:32;;;;;;;18.58;3.45;;;13.80;82.20;;;;;;5078789;28;20071;-70
2021/12/31 11:43:25;;;;;;;12.38;2.00;;;13.90;82.30;;;;;;5091740;28;20052;-71
2021/12/31 11:46:11;;;;;;;15.05;3.33;;;13.80;82.20;;;;;;5091298;28;20059;-70
2021/12/31 11:48:46;;;;;;;16.88;2.95;;;14.00;82.10;;;;;;5072149;28;20059;-76
2021/12/31 11:51:27;;;;;;;14.73;2.85;;;14.20;81.60;;;;;;5089546;28;20052;-70
2021/12/31 11:53:58;;;;;;;11.60;2.47;;;14.50;80.20;;;;;;5061085;28;20397;-69
2021/12/31 11:56:43;;;;;;;14.32;2.35;;;14.70;79.20;;;;;;5072685;28;20383;-70
2021/12/31 11:59:16;;;;;;;21.25;3.45;;;14.90;77.90;;;;;;5074460;28;20056;-70
2021/12/31 12:01:51;;;;;;;;;;;14.90;77.90;;;;;;5089329;28;20434;-69
2021/12/31 12:04:28;;;;;;;18.60;3.22;;;14.90;77.80;;;;;;5071451;28;19920;-69
2021/12/31 12:07:05;;;;;;;18.92;3.30;;;14.90;77.60;;;;;;5079980;28;20475;-70
2021/12/31 12:09:35;;;;;;;20.67;3.40;;;15.00;77.70;;;;;;5084509;28;20047;-72
2021/12/31 12:12:13;;;;;;;21.88;3.80;;;15.20;78.00;;;;;;5090962;28;20055;-70
2021/12/31 12:14:47;;;;;;;19.90;3.53;;;15.40;76.40;;;;;;5089756;28;20055;-70
2021/12/31 12:17:16;;;;;;;35.17;3.85;;;15.60;76.20;;;;;;5091339;28;20055;-75
2021/12/31 12:19:49;;;;;;;17.75;2.70;;;15.60;75.80;;;;;;5091191;28;20341;-71
2021/12/31 12:22:34;;;;;;;17.13;3.00;;;15.60;75.20;;;;;;5087976;28;20048;-71
2021/12/31 12:25:12;;;;;;;18.13;2.53;;;15.50;74.80;;;;;;5071469;28;20040;-71
2021/12/31 12:27:40;;;;;;;24.13;3.13;;;15.50;75.50;;;;;;5071318;28;20045;-71
2021/12/31 12:30:12;;;;;;;13.18;2.40;;;15.60;75.20;;;;;;5073533;28;20052;-71
2021/12/31 12:32:53;;;;;;;19.05;3.40;;;15.70;74.90;;;;;;5089323;28;20403;-70
2021/12/31 12:35:31;;;;;;;18.60;3.38;;;15.90;73.70;;;;;;5087766;28;20055;-70
2021/12/31 12:38:13;;;;;;;20.42;3.67;;;16.20;73.20;;;;;;5093024;28;20044;-70
2021/12/31 12:40:47;;;;;;;20.08;3.38;;;16.40;74.10;;;;;;5076883;28;20377;-70
2021/12/31 12:43:26;;;;;;;16.92;3.15;;;16.80;71.50;;;;;;5069442;28;20048;-70
2021/12/31 12:45:59;;;;;;;24.13;3.60;;;16.80;70.60;;;;;;5080955;28;20048;-70
2021/12/31 12:48:31;;;;;;;;;;;16.80;70.00;;;;;;5083140;28;20056;-70
2021/12/31 12:51:00;;;;;;;19.88;2.92;;;16.80;71.20;;;;;;5075934;28;19987;-70
2021/12/31 12:53:29;;;;;;;21.30;3.50;;;16.80;70.50;;;;;;5077997;28;20047;-71
2021/12/31 12:56:10;;;;;;;15.32;3.05;;;16.70;70.10;;;;;;5072442;28;20052;-69
2021/12/31 12:58:45;;;;;;;16.48;3.10;;;16.60;70.50;;;;;;5093441;28;20495;-70
2021/12/31 13:01:13;;;;;;;13.48;2.63;;;16.50;71.20;;;;;;5093117;28;20188;-70